sensor_id;sensor_type;location;lat;lon;timestamp;P1;durP1;ratioP1;P2;durP2;ratioP2
9280;SDS011;4679;47.966;7.958;2022-12-31T07:35:50;0.10;;;0.07;;
9280;SDS011;4679;47.966;7.958;2022-12-31T07:38:04;0.20;;;0.20;;
9280;SDS011;4679;47.966;7.958;2022-12-31T07:40:14;0.17;;;0.10;;
9280;SDS011;4679;47.966;7.958;2022-12-31T07:42:22;1.03;;;0.10;;
9280;SDS011;4679;47.966;7.958;2022-12-31T07:44:40;0.10;;;0.10;;
9280;SDS011;4679;47.966;7.958;2022-12-31T07:46:53;0.00;;;0.00;;
9280;SDS011;4679;47.966;7.958;2022-12-31T07:48:56;0.10;;;0.10;;
9280;SDS011;4679;47.966;7.958;2022-12-31T07:51:00;0.40;;;0.10;;
9280;SDS011;4679;47.966;7.958;2022-12-31T07:53:02;0.10;;;0.10;;
9280;SDS011;4679;47.966;7.958;2022-12-31T07:55:04;0.10;;;0.10;;
9280;SDS011;4679;47.966;7.958;2022-12-31T07:57:07;0.00;;;0.00;;
9280;SDS011;4679;47.966;7.958;2022-12-31T07:59:13;1.07;;;0.20;;
9280;SDS011;4679;47.966;7.958;2022-12-31T08:01:27;0.20;;;0.17;;
9280;SDS011;4679;47.966;7.958;2022-12-31T08:03:39;0.57;;;0.10;;
9280;SDS011;4679;47.966;7.958;2022-12-31T08:05:49;0.93;;;0.20;;
9280;SDS011;4679;47.966;7.958;2022-12-31T08:07:58;0.03;;;0.03;;
9280;SDS011;4679;47.966;7.958;2022-12-31T08:10:13;0.00;;;0.00;;
9280;SDS011;4679;47.966;7.958;2022-12-31T08:12:21;0.63;;;0.60;;
9280;SDS011;4679;47.966;7.958;2022-12-31T08:14:26;0.23;;;0.10;;
9280;SDS011;4679;47.966;7.958;2022-12-31T08:16:29;0.10;;;0.10;;
9280;SDS011;4679;47.966;7.958;2022-12-31T08:18:31;0.20;;;0.10;;
9280;SDS011;4679;47.966;7.958;2022-12-31T08:20:35;0.10;;;0.10;;
9280;SDS011;4679;47.966;7.958;2022-12-31T08:22:49;0.10;;;0.10;;
9280;SDS011;4679;47.966;7.958;2022-12-31T08:25:07;0.30;;;0.20;;
9280;SDS011;4679;47.966;7.958;2022-12-31T08:27:18;0.43;;;0.20;;
9280;SDS011;4679;47.966;7.958;2022-12-31T08:29:27;0.20;;;0.10;;
9280;SDS011;4679;47.966;7.958;2022-12-31T08:31:38;0.13;;;0.10;;
9280;SDS011;4679;47.966;7.958;2022-12-31T08:33:47;0.10;;;0.03;;
9280;SDS011;4679;47.966;7.958;2022-12-31T08:35:59;2.37;;;0.20;;
9280;SDS011;4679;47.966;7.958;2022-12-31T08:38:15;0.10;;;0.10;;
9280;SDS011;4679;47.966;7.958;2022-12-31T08:40:23;0.93;;;0.27;;
9280;SDS011;4679;47.966;7.958;2022-12-31T08:42:30;0.10;;;0.10;;
9280;SDS011;4679;47.966;7.958;2022-12-31T08:44:38;0.10;;;0.10;;
9280;SDS011;4679;47.966;7.958;2022-12-31T08:46:48;0.00;;;0.00;;
9280;SDS011;4679;47.966;7.958;2022-12-31T08:48:55;0.10;;;0.10;;
9280;SDS011;4679;47.966;7.958;2022-12-31T08:50:57;0.10;;;0.00;;
9280;SDS011;4679;47.966;7.958;2022-12-31T08:52:59;0.53;;;0.10;;
9280;SDS011;4679;47.966;7.958;2022-12-31T08:55:03;0.53;;;0.10;;
9280;SDS011;4679;47.966;7.958;2022-12-31T08:57:08;0.13;;;0.00;;
9280;SDS011;4679;47.966;7.958;2022-12-31T08:59:24;0.10;;;0.10;;
9280;SDS011;4679;47.966;7.958;2022-12-31T09:01:38;0.00;;;0.00;;
9280;SDS011;4679;47.966;7.958;2022-12-31T09:03:54;0.47;;;0.07;;
9280;SDS011;4679;47.966;7.958;2022-12-31T09:06:05;0.10;;;0.10;;
9280;SDS011;4679;47.966;7.958;2022-12-31T09:08:15;0.00;;;0.00;;
9280;SDS011;4679;47.966;7.958;2022-12-31T09:10:28;0.37;;;0.00;;
9280;SDS011;4679;47.966;7.958;2022-12-31T09:12:33;1.17;;;0.00;;
9280;SDS011;4679;47.966;7.958;2022-12-31T09:14:42;0.00;;;0.00;;
9280;SDS011;4679;47.966;7.958;2022-12-31T09:16:48;0.57;;;0.10;;
9280;SDS011;4679;47.966;7.958;2022-12-31T09:18:57;0.17;;;0.10;;
9280;SDS011;4679;47.966;7.958;2022-12-31T09:20:59;0.07;;;0.00;;
9280;SDS011;4679;47.966;7.958;2022-12-31T09:23:01;0.10;;;0.10;;
9280;SDS011;4679;47.966;7.958;2022-12-31T09:25:04;0.10;;;0.10;;
9280;SDS011;4679;47.966;7.958;2022-12-31T09:27:09;1.03;;;0.10;;
9280;SDS011;4679;47.966;7.958;2022-12-31T09:29:18;0.00;;;0.00;;
9280;SDS011;4679;47.966;7.958;2022-12-31T09:31:34;0.63;;;0.10;;
9280;SDS011;4679;47.966;7.958;2022-12-31T09:33:41;0.10;;;0.00;;
9280;SDS011;4679;47.966;7.958;2022-12-31T09:35:51;0.10;;;0.10;;
9280;SDS011;4679;47.966;7.958;2022-12-31T09:37:55;0.10;;;0.10;;
9280;SDS011;4679;47.966;7.958;2022-12-31T09:40:00;0.10;;;0.10;;
9280;SDS011;4679;47.966;7.958;2022-12-31T09:47:49;0.10;;;0.10;;
9280;SDS011;4679;47.966;7.958;2022-12-31T09:50:26;0.40;;;0.07;;
9280;SDS011;4679;47.966;7.958;2022-12-31T09:55:29;0.10;;;0.10;;
9280;SDS011;4679;47.966;7.958;2022-12-31T09:57:37;0.23;;;0.10;;
9280;SDS011;4679;47.966;7.958;2022-12-31T09:59:44;0.17;;;0.10;;
9280;SDS011;4679;47.966;7.958;2022-12-31T10:01:52;0.50;;;0.10;;
9280;SDS011;4679;47.966;7.958;2022-12-31T10:04:14;0.73;;;0.10;;
9280;SDS011;4679;47.966;7.958;2022-12-31T10:06:30;0.07;;;0.00;;
9280;SDS011;4679;47.966;7.958;2022-12-31T10:08:46;0.50;;;0.10;;
9280;SDS011;4679;47.966;7.958;2022-12-31T10:11:02;0.00;;;0.00;;
9280;SDS011;4679;47.966;7.958;2022-12-31T10:13:15;0.10;;;0.00;;
9280;SDS011;4679;47.966;7.958;2022-12-31T10:18:21;0.10;;;0.10;;
9280;SDS011;4679;47.966;7.958;2022-12-31T10:20:36;0.03;;;0.00;;
9280;SDS011;4679;47.966;7.958;2022-12-31T10:22:57;0.10;;;0.10;;
9280;SDS011;4679;47.966;7.958;2022-12-31T10:25:18;0.13;;;0.10;;
9280;SDS011;4679;47.966;7.958;2022-12-31T10:27:34;7.07;;;3.80;;
9280;SDS011;4679;47.966;7.958;2022-12-31T10:29:44;2.10;;;1.43;;
9280;SDS011;4679;47.966;7.958;2022-12-31T10:31:52;0.30;;;0.10;;
9280;SDS011;4679;47.966;7.958;2022-12-31T10:34:06;0.20;;;0.07;;
9280;SDS011;4679;47.966;7.958;2022-12-31T10:36:17;0.10;;;0.10;;
9280;SDS011;4679;47.966;7.958;2022-12-31T10:38:23;0.07;;;0.00;;
9280;SDS011;4679;47.966;7.958;2022-12-31T10:40:32;0.10;;;0.10;;
9280;SDS011;4679;47.966;7.958;2022-12-31T10:42:59;0.00;;;0.00;;
9280;SDS011;4679;47.966;7.958;2022-12-31T10:53:17;0.00;;;0.00;;
9280;SDS011;4679;47.966;7.958;2022-12-31T10:55:39;0.20;;;0.10;;
9280;SDS011;4679;47.966;7.958;2022-12-31T10:58:06;0.10;;;0.10;;
9280;SDS011;4679;47.966;7.958;2022-12-31T11:00:19;0.40;;;0.10;;
9280;SDS011;4679;47.966;7.958;2022-12-31T11:02:37;0.10;;;0.10;;
9280;SDS011;4679;47.966;7.958;2022-12-31T11:05:18;0.40;;;0.10;;
9280;SDS011;4679;47.966;7.958;2022-12-31T11:07:40;0.00;;;0.00;;
9280;SDS011;4679;47.966;7.958;2022-12-31T11:12:54;0.20;;;0.10;;
9280;SDS011;4679;47.966;7.958;2022-12-31T11:15:17;0.10;;;0.10;;
9280;SDS011;4679;47.966;7.958;2022-12-31T11:17:48;0.10;;;0.00;;
9280;SDS011;4679;47.966;7.958;2022-12-31T11:20:02;0.00;;;0.00;;
9280;SDS011;4679;47.966;7.958;2022-12-31T11:22:24;0.00;;;0.00;;
9280;SDS011;4679;47.966;7.958;2022-12-31T11:24:39;0.00;;;0.00;;
9280;SDS011;4679;47.966;7.958;2022-12-31T11:27:09;0.03;;;0.03;;
9280;SDS011;4679;47.966;7.958;2022-12-31T11:29:23;0.10;;;0.10;;
9280;SDS011;4679;47.966;7.958;2022-12-31T11:31:40;0.10;;;0.10;;
9280;SDS011;4679;47.966;7.958;2022-12-31T11:33:56;0.73;;;0.10;;
9280;SDS011;4679;47.966;7.958;2022-12-31T11:36:12;0.00;;;0.00;;
9280;SDS011;4679;47.966;7.958;2022-12-31T11:38:20;1.20;;;0.10;;
9280;SDS011;4679;47.966;7.958;2022-12-31T11:40:35;0.73;;;0.10;;
9280;SDS011;4679;47.966;7.958;2022-12-31T11:42:43;0.10;;;0.07;;
9280;SDS011;4679;47.966;7.958;2022-12-31T11:44:52;0.10;;;0.10;;
9280;SDS011;4679;47.966;7.958;2022-12-31T11:47:03;0.00;;;0.00;;
9280;SDS011;4679;47.966;7.958;2022-12-31T11:49:23;0.10;;;0.10;;
9280;SDS011;4679;47.966;7.958;2022-12-31T11:51:38;0.10;;;0.10;;
9280;SDS011;4679;47.966;7.958;2022-12-31T11:54:11;0.00;;;0.00;;
9280;SDS011;4679;47.966;7.958;2022-12-31T11:56:28;0.10;;;0.10;;
9280;SDS011;4679;47.966;7.958;2022-12-31T11:58:34;0.00;;;0.00;;
9280;SDS011;4679;47.966;7.958;2022-12-31T12:00:36;0.00;;;0.00;;
9280;SDS011;4679;47.966;7.958;2022-12-31T12:02:41;0.00;;;0.00;;
9280;SDS011;4679;47.966;7.958;2022-12-31T12:04:44;0.00;;;0.00;;
9280;SDS011;4679;47.966;7.958;2022-12-31T12:06:50;0.07;;;0.07;;
9280;SDS011;4679;47.966;7.958;2022-12-31T12:08:52;0.00;;;0.00;;
9280;SDS011;4679;47.966;7.958;2022-12-31T12:10:59;0.00;;;0.00;;
9280;SDS011;4679;47.966;7.958;2022-12-31T12:13:13;0.20;;;0.00;;
9280;SDS011;4679;47.966;7.958;2022-12-31T12:15:22;0.10;;;0.10;;
9280;SDS011;4679;47.966;7.958;2022-12-31T12:17:27;0.07;;;0.07;;
9280;SDS011;4679;47.966;7.958;2022-12-31T12:19:32;0.00;;;0.00;;
9280;SDS011;4679;47.966;7.958;2022-12-31T12:21:43;0.20;;;0.00;;
9280;SDS011;4679;47.966;7.958;2022-12-31T12:23:54;0.10;;;0.10;;
9280;SDS011;4679;47.966;7.958;2022-12-31T12:25:57;0.00;;;0.00;;
9280;SDS011;4679;47.966;7.958;2022-12-31T12:28:09;0.10;;;0.00;;
9280;SDS011;4679;47.966;7.958;2022-12-31T12:30:18;0.00;;;0.00;;
9280;SDS011;4679;47.966;7.958;2022-12-31T12:32:22;0.53;;;0.10;;
9280;SDS011;4679;47.966;7.958;2022-12-31T12:34:26;0.63;;;0.00;;
9280;SDS011;4679;47.966;7.958;2022-12-31T12:36:30;0.00;;;0.00;;
9280;SDS011;4679;47.966;7.958;2022-12-31T12:38:32;0.17;;;0.17;;
9280;SDS011;4679;47.966;7.958;2022-12-31T12:40:34;0.10;;;0.10;;
9280;SDS011;4679;47.966;7.958;2022-12-31T12:42:44;0.40;;;0.10;;
9280;SDS011;4679;47.966;7.958;2022-12-31T12:44:47;0.10;;;0.10;;
9280;SDS011;4679;47.966;7.958;2022-12-31T12:46:51;0.10;;;0.10;;
9280;SDS011;4679;47.966;7.958;2022-12-31T12:48:54;0.10;;;0.10;;
9280;SDS011;4679;47.966;7.958;2022-12-31T12:50:57;0.20;;;0.20;;
9280;SDS011;4679;47.966;7.958;2022-12-31T12:53:03;0.13;;;0.10;;
9280;SDS011;4679;47.966;7.958;2022-12-31T12:55:16;0.10;;;0.10;;
9280;SDS011;4679;47.966;7.958;2022-12-31T12:57:23;0.10;;;0.00;;
9280;SDS011;4679;47.966;7.958;2022-12-31T13:02:10;0.20;;;0.20;;
9280;SDS011;4679;47.966;7.958;2022-12-31T13:04:37;0.07;;;0.07;;
9280;SDS011;4679;47.966;7.958;2022-12-31T13:06:50;0.60;;;0.10;;
9280;SDS011;4679;47.966;7.958;2022-12-31T13:09:07;0.10;;;0.10;;
9280;SDS011;4679;47.966;7.958;2022-12-31T13:11:24;0.10;;;0.10;;
9280;SDS011;4679;47.966;7.958;2022-12-31T13:13:38;1.40;;;0.13;;
9280;SDS011;4679;47.966;7.958;2022-12-31T13:15:47;0.27;;;0.20;;
9280;SDS011;4679;47.966;7.958;2022-12-31T13:17:58;0.40;;;0.13;;
9280;SDS011;4679;47.966;7.958;2022-12-31T13:20:12;0.10;;;0.10;;
9280;SDS011;4679;47.966;7.958;2022-12-31T13:22:21;1.07;;;0.10;;
9280;SDS011;4679;47.966;7.958;2022-12-31T13:24:29;0.30;;;0.20;;
9280;SDS011;4679;47.966;7.958;2022-12-31T13:26:46;0.20;;;0.20;;
9280;SDS011;4679;47.966;7.958;2022-12-31T13:28:53;0.57;;;0.40;;
9280;SDS011;4679;47.966;7.958;2022-12-31T13:30:57;0.30;;;0.30;;
9280;SDS011;4679;47.966;7.958;2022-12-31T13:33:03;1.40;;;0.53;;
9280;SDS011;4679;47.966;7.958;2022-12-31T13:35:15;0.67;;;0.40;;
9280;SDS011;4679;47.966;7.958;2022-12-31T13:37:24;0.40;;;0.40;;
9280;SDS011;4679;47.966;7.958;2022-12-31T13:39:30;0.50;;;0.47;;
9280;SDS011;4679;47.966;7.958;2022-12-31T13:41:37;0.50;;;0.50;;
9280;SDS011;4679;47.966;7.958;2022-12-31T13:43:44;0.53;;;0.53;;
9280;SDS011;4679;47.966;7.958;2022-12-31T13:45:55;0.97;;;0.60;;
9280;SDS011;4679;47.966;7.958;2022-12-31T13:48:05;0.90;;;0.43;;
9280;SDS011;4679;47.966;7.958;2022-12-31T13:50:14;0.40;;;0.40;;
9280;SDS011;4679;47.966;7.958;2022-12-31T13:52:21;1.03;;;0.60;;
9280;SDS011;4679;47.966;7.958;2022-12-31T13:54:29;0.50;;;0.50;;
9280;SDS011;4679;47.966;7.958;2022-12-31T13:56:38;0.60;;;0.50;;
9280;SDS011;4679;47.966;7.958;2022-12-31T13:58:42;0.97;;;0.50;;
9280;SDS011;4679;47.966;7.958;2022-12-31T14:00:48;0.47;;;0.47;;
9280;SDS011;4679;47.966;7.958;2022-12-31T14:02:59;1.37;;;0.60;;
9280;SDS011;4679;47.966;7.958;2022-12-31T14:05:12;1.70;;;0.60;;
9280;SDS011;4679;47.966;7.958;2022-12-31T14:07:20;0.40;;;0.40;;
9280;SDS011;4679;47.966;7.958;2022-12-31T14:09:29;0.80;;;0.63;;
9280;SDS011;4679;47.966;7.958;2022-12-31T14:11:40;1.67;;;0.60;;
9280;SDS011;4679;47.966;7.958;2022-12-31T14:13:57;0.40;;;0.40;;
9280;SDS011;4679;47.966;7.958;2022-12-31T14:16:16;0.67;;;0.60;;
9280;SDS011;4679;47.966;7.958;2022-12-31T14:18:25;0.60;;;0.50;;
9280;SDS011;4679;47.966;7.958;2022-12-31T14:20:37;0.50;;;0.50;;
9280;SDS011;4679;47.966;7.958;2022-12-31T14:22:48;0.50;;;0.50;;
9280;SDS011;4679;47.966;7.958;2022-12-31T14:24:54;0.80;;;0.70;;
9280;SDS011;4679;47.966;7.958;2022-12-31T14:27:00;0.90;;;0.80;;
9280;SDS011;4679;47.966;7.958;2022-12-31T14:29:09;1.53;;;0.80;;
9280;SDS011;4679;47.966;7.958;2022-12-31T14:31:22;0.63;;;0.60;;
9280;SDS011;4679;47.966;7.958;2022-12-31T14:33:38;0.70;;;0.60;;
9280;SDS011;4679;47.966;7.958;2022-12-31T14:35:56;2.60;;;1.10;;
9280;SDS011;4679;47.966;7.958;2022-12-31T14:38:15;0.73;;;0.73;;
9280;SDS011;4679;47.966;7.958;2022-12-31T14:40:24;0.70;;;0.70;;
9280;SDS011;4679;47.966;7.958;2022-12-31T14:42:30;1.93;;;0.90;;
9280;SDS011;4679;47.966;7.958;2022-12-31T14:44:41;2.33;;;0.90;;
9280;SDS011;4679;47.966;7.958;2022-12-31T14:46:55;2.90;;;0.90;;
9280;SDS011;4679;47.966;7.958;2022-12-31T14:49:12;1.00;;;0.80;;
9280;SDS011;4679;47.966;7.958;2022-12-31T14:51:23;2.50;;;0.70;;
9280;SDS011;4679;47.966;7.958;2022-12-31T14:53:28;1.27;;;0.70;;
9280;SDS011;4679;47.966;7.958;2022-12-31T14:55:31;0.63;;;0.60;;
9280;SDS011;4679;47.966;7.958;2022-12-31T14:57:34;0.67;;;0.40;;
9280;SDS011;4679;47.966;7.958;2022-12-31T14:59:38;1.43;;;0.70;;
9280;SDS011;4679;47.966;7.958;2022-12-31T15:01:43;0.70;;;0.70;;
9280;SDS011;4679;47.966;7.958;2022-12-31T15:03:45;0.73;;;0.73;;
9280;SDS011;4679;47.966;7.958;2022-12-31T15:05:49;4.17;;;2.40;;
9280;SDS011;4679;47.966;7.958;2022-12-31T15:10:27;3.27;;;1.83;;
9280;SDS011;4679;47.966;7.958;2022-12-31T15:15:06;2.20;;;1.23;;
9280;SDS011;4679;47.966;7.958;2022-12-31T15:17:23;1.90;;;1.33;;
9280;SDS011;4679;47.966;7.958;2022-12-31T15:19:39;1.57;;;0.80;;
9280;SDS011;4679;47.966;7.958;2022-12-31T15:21:57;2.70;;;0.90;;
9280;SDS011;4679;47.966;7.958;2022-12-31T15:24:18;1.60;;;1.17;;
9280;SDS011;4679;47.966;7.958;2022-12-31T15:26:22;2.20;;;1.57;;
9280;SDS011;4679;47.966;7.958;2022-12-31T15:28:28;1.60;;;1.50;;
9280;SDS011;4679;47.966;7.958;2022-12-31T15:30:36;1.23;;;1.13;;
9280;SDS011;4679;47.966;7.958;2022-12-31T15:32:42;0.60;;;0.50;;
9280;SDS011;4679;47.966;7.958;2022-12-31T15:34:58;1.10;;;0.70;;
9280;SDS011;4679;47.966;7.958;2022-12-31T15:37:02;1.87;;;0.80;;
9280;SDS011;4679;47.966;7.958;2022-12-31T15:41:27;1.93;;;1.10;;
9280;SDS011;4679;47.966;7.958;2022-12-31T15:43:38;1.13;;;1.00;;
9280;SDS011;4679;47.966;7.958;2022-12-31T15:45:43;1.77;;;0.90;;
9280;SDS011;4679;47.966;7.958;2022-12-31T15:47:47;1.27;;;0.90;;
9280;SDS011;4679;47.966;7.958;2022-12-31T15:49:55;1.90;;;0.90;;
9280;SDS011;4679;47.966;7.958;2022-12-31T15:52:01;1.57;;;1.40;;
9280;SDS011;4679;47.966;7.958;2022-12-31T15:54:05;4.73;;;1.50;;
9280;SDS011;4679;47.966;7.958;2022-12-31T15:56:18;1.27;;;1.10;;
9280;SDS011;4679;47.966;7.958;2022-12-31T15:58:29;1.37;;;0.97;;
9280;SDS011;4679;47.966;7.958;2022-12-31T16:00:41;2.10;;;1.60;;
9280;SDS011;4679;47.966;7.958;2022-12-31T16:02:55;3.20;;;2.00;;
9280;SDS011;4679;47.966;7.958;2022-12-31T16:04:56;1.73;;;1.63;;
9280;SDS011;4679;47.966;7.958;2022-12-31T16:06:59;6.30;;;2.10;;
9280;SDS011;4679;47.966;7.958;2022-12-31T16:09:04;2.83;;;2.30;;
9280;SDS011;4679;47.966;7.958;2022-12-31T16:11:08;6.03;;;4.63;;
9280;SDS011;4679;47.966;7.958;2022-12-31T16:13:16;8.50;;;4.10;;
9280;SDS011;4679;47.966;7.958;2022-12-31T16:15:20;4.43;;;2.00;;
9280;SDS011;4679;47.966;7.958;2022-12-31T16:17:25;4.83;;;2.03;;
9280;SDS011;4679;47.966;7.958;2022-12-31T16:19:29;3.47;;;2.20;;
9280;SDS011;4679;47.966;7.958;2022-12-31T16:21:34;6.10;;;2.03;;
9280;SDS011;4679;47.966;7.958;2022-12-31T16:23:36;1.50;;;1.30;;
9280;SDS011;4679;47.966;7.958;2022-12-31T16:25:38;2.07;;;1.20;;
9280;SDS011;4679;47.966;7.958;2022-12-31T16:27:47;3.60;;;1.40;;
9280;SDS011;4679;47.966;7.958;2022-12-31T16:29:55;2.40;;;1.20;;
9280;SDS011;4679;47.966;7.958;2022-12-31T16:31:59;5.10;;;3.10;;
9280;SDS011;4679;47.966;7.958;2022-12-31T16:34:06;7.57;;;2.90;;
9280;SDS011;4679;47.966;7.958;2022-12-31T16:36:17;3.13;;;2.17;;
9280;SDS011;4679;47.966;7.958;2022-12-31T16:38:21;8.00;;;5.13;;
9280;SDS011;4679;47.966;7.958;2022-12-31T16:40:23;2.07;;;1.47;;
9280;SDS011;4679;47.966;7.958;2022-12-31T16:42:25;2.17;;;1.37;;
9280;SDS011;4679;47.966;7.958;2022-12-31T16:44:28;2.90;;;2.60;;
9280;SDS011;4679;47.966;7.958;2022-12-31T16:46:32;4.37;;;3.63;;
9280;SDS011;4679;47.966;7.958;2022-12-31T16:48:33;2.50;;;2.03;;
9280;SDS011;4679;47.966;7.958;2022-12-31T16:50:35;11.97;;;6.40;;
9280;SDS011;4679;47.966;7.958;2022-12-31T16:52:38;5.20;;;4.40;;
9280;SDS011;4679;47.966;7.958;2022-12-31T16:54:43;12.20;;;7.87;;
9280;SDS011;4679;47.966;7.958;2022-12-31T16:56:47;11.10;;;8.30;;
9280;SDS011;4679;47.966;7.958;2022-12-31T16:58:49;12.23;;;8.40;;
9280;SDS011;4679;47.966;7.958;2022-12-31T17:01:02;8.03;;;5.47;;
9280;SDS011;4679;47.966;7.958;2022-12-31T17:03:15;4.00;;;2.60;;
9280;SDS011;4679;47.966;7.958;2022-12-31T17:05:21;6.67;;;5.13;;
9280;SDS011;4679;47.966;7.958;2022-12-31T17:07:24;5.47;;;5.07;;
9280;SDS011;4679;47.966;7.958;2022-12-31T17:09:36;2.07;;;1.73;;
9280;SDS011;4679;47.966;7.958;2022-12-31T17:11:42;2.53;;;2.00;;
9280;SDS011;4679;47.966;7.958;2022-12-31T17:13:51;1.53;;;1.43;;
9280;SDS011;4679;47.966;7.958;2022-12-31T17:15:55;1.60;;;1.47;;
9280;SDS011;4679;47.966;7.958;2022-12-31T17:18:00;4.53;;;1.87;;
9280;SDS011;4679;47.966;7.958;2022-12-31T17:20:05;2.10;;;1.60;;
9280;SDS011;4679;47.966;7.958;2022-12-31T17:22:12;1.83;;;1.23;;
9280;SDS011;4679;47.966;7.958;2022-12-31T17:24:22;1.77;;;1.00;;
9280;SDS011;4679;47.966;7.958;2022-12-31T17:26:26;1.40;;;1.30;;
9280;SDS011;4679;47.966;7.958;2022-12-31T17:28:31;1.40;;;1.30;;
9280;SDS011;4679;47.966;7.958;2022-12-31T17:30:41;0.87;;;0.67;;
9280;SDS011;4679;47.966;7.958;2022-12-31T17:32:43;0.93;;;0.80;;
9280;SDS011;4679;47.966;7.958;2022-12-31T17:34:47;2.50;;;1.50;;
9280;SDS011;4679;47.966;7.958;2022-12-31T17:36:53;1.43;;;1.30;;
9280;SDS011;4679;47.966;7.958;2022-12-31T17:39:09;1.50;;;1.40;;
9280;SDS011;4679;47.966;7.958;2022-12-31T17:41:25;1.73;;;1.40;;
9280;SDS011;4679;47.966;7.958;2022-12-31T17:43:28;7.10;;;6.37;;
9280;SDS011;4679;47.966;7.958;2022-12-31T17:45:34;3.90;;;3.50;;
9280;SDS011;4679;47.966;7.958;2022-12-31T17:47:38;3.77;;;3.30;;
9280;SDS011;4679;47.966;7.958;2022-12-31T17:49:42;3.73;;;2.30;;
9280;SDS011;4679;47.966;7.958;2022-12-31T17:51:45;5.17;;;4.57;;
9280;SDS011;4679;47.966;7.958;2022-12-31T17:53:49;1.50;;;1.40;;
9280;SDS011;4679;47.966;7.958;2022-12-31T17:55:51;6.87;;;6.20;;
9280;SDS011;4679;47.966;7.958;2022-12-31T17:57:55;3.93;;;2.90;;
9280;SDS011;4679;47.966;7.958;2022-12-31T17:59:57;14.47;;;8.33;;
9280;SDS011;4679;47.966;7.958;2022-12-31T18:02:00;5.27;;;4.80;;
9280;SDS011;4679;47.966;7.958;2022-12-31T18:04:04;3.37;;;2.90;;
9280;SDS011;4679;47.966;7.958;2022-12-31T18:06:09;6.03;;;5.53;;
9280;SDS011;4679;47.966;7.958;2022-12-31T18:08:11;3.53;;;3.23;;
9280;SDS011;4679;47.966;7.958;2022-12-31T18:10:15;5.00;;;4.03;;
9280;SDS011;4679;47.966;7.958;2022-12-31T18:12:18;1.57;;;1.47;;
9280;SDS011;4679;47.966;7.958;2022-12-31T18:14:20;1.70;;;1.40;;
9280;SDS011;4679;47.966;7.958;2022-12-31T18:16:21;3.30;;;1.67;;
9280;SDS011;4679;47.966;7.958;2022-12-31T18:18:24;2.70;;;1.40;;
9280;SDS011;4679;47.966;7.958;2022-12-31T18:20:27;2.63;;;1.30;;
9280;SDS011;4679;47.966;7.958;2022-12-31T18:22:29;1.40;;;1.30;;
9280;SDS011;4679;47.966;7.958;2022-12-31T18:24:31;1.30;;;1.20;;
9280;SDS011;4679;47.966;7.958;2022-12-31T18:26:34;2.83;;;2.20;;
9280;SDS011;4679;47.966;7.958;2022-12-31T18:28:36;1.90;;;1.43;;
9280;SDS011;4679;47.966;7.958;2022-12-31T18:30:37;1.43;;;1.30;;
9280;SDS011;4679;47.966;7.958;2022-12-31T18:32:39;1.77;;;1.20;;
9280;SDS011;4679;47.966;7.958;2022-12-31T18:34:41;1.60;;;1.37;;
9280;SDS011;4679;47.966;7.958;2022-12-31T18:36:43;1.43;;;0.50;;
9280;SDS011;4679;47.966;7.958;2022-12-31T18:38:45;1.00;;;0.80;;
9280;SDS011;4679;47.966;7.958;2022-12-31T18:40:49;0.53;;;0.50;;
9280;SDS011;4679;47.966;7.958;2022-12-31T18:42:55;0.60;;;0.50;;
9280;SDS011;4679;47.966;7.958;2022-12-31T18:44:57;1.00;;;0.77;;
9280;SDS011;4679;47.966;7.958;2022-12-31T18:46:58;0.97;;;0.87;;
9280;SDS011;4679;47.966;7.958;2022-12-31T18:49:00;0.57;;;0.57;;
9280;SDS011;4679;47.966;7.958;2022-12-31T18:51:02;0.40;;;0.40;;
9280;SDS011;4679;47.966;7.958;2022-12-31T18:53:03;1.13;;;0.10;;
9280;SDS011;4679;47.966;7.958;2022-12-31T18:55:11;0.60;;;0.60;;
9280;SDS011;4679;47.966;7.958;2022-12-31T18:57:21;1.60;;;1.50;;
9280;SDS011;4679;47.966;7.958;2022-12-31T18:59:24;0.80;;;0.80;;
9280;SDS011;4679;47.966;7.958;2022-12-31T19:01:26;0.80;;;0.80;;
9280;SDS011;4679;47.966;7.958;2022-12-31T19:03:29;1.97;;;0.70;;
9280;SDS011;4679;47.966;7.958;2022-12-31T19:05:31;0.63;;;0.53;;
9280;SDS011;4679;47.966;7.958;2022-12-31T19:07:34;0.80;;;0.80;;
9280;SDS011;4679;47.966;7.958;2022-12-31T19:09:36;1.17;;;1.03;;
9280;SDS011;4679;47.966;7.958;2022-12-31T19:11:38;1.03;;;0.90;;
9280;SDS011;4679;47.966;7.958;2022-12-31T19:13:40;2.10;;;0.80;;
9280;SDS011;4679;47.966;7.958;2022-12-31T19:15:44;1.47;;;0.83;;
9280;SDS011;4679;47.966;7.958;2022-12-31T19:17:47;1.60;;;1.13;;
9280;SDS011;4679;47.966;7.958;2022-12-31T19:19:48;1.17;;;0.93;;
9280;SDS011;4679;47.966;7.958;2022-12-31T19:21:50;1.37;;;1.27;;
9280;SDS011;4679;47.966;7.958;2022-12-31T19:23:52;1.63;;;1.30;;
9280;SDS011;4679;47.966;7.958;2022-12-31T19:25:54;2.23;;;1.53;;
9280;SDS011;4679;47.966;7.958;2022-12-31T19:27:56;2.40;;;1.20;;
9280;SDS011;4679;47.966;7.958;2022-12-31T19:29:58;1.87;;;1.77;;
9280;SDS011;4679;47.966;7.958;2022-12-31T19:32:01;3.00;;;2.50;;
9280;SDS011;4679;47.966;7.958;2022-12-31T19:34:03;2.70;;;2.50;;
9280;SDS011;4679;47.966;7.958;2022-12-31T19:36:05;3.43;;;3.10;;
9280;SDS011;4679;47.966;7.958;2022-12-31T19:38:15;5.00;;;3.47;;
9280;SDS011;4679;47.966;7.958;2022-12-31T19:40:19;4.53;;;4.13;;
9280;SDS011;4679;47.966;7.958;2022-12-31T19:42:22;4.90;;;4.30;;
9280;SDS011;4679;47.966;7.958;2022-12-31T19:44:24;5.97;;;4.33;;
9280;SDS011;4679;47.966;7.958;2022-12-31T19:46:26;4.20;;;3.83;;
9280;SDS011;4679;47.966;7.958;2022-12-31T19:48:29;4.33;;;3.63;;
9280;SDS011;4679;47.966;7.958;2022-12-31T19:50:31;2.70;;;2.30;;
9280;SDS011;4679;47.966;7.958;2022-12-31T19:52:33;2.97;;;2.10;;
9280;SDS011;4679;47.966;7.958;2022-12-31T19:54:34;2.83;;;2.40;;
9280;SDS011;4679;47.966;7.958;2022-12-31T19:56:36;2.30;;;2.03;;
9280;SDS011;4679;47.966;7.958;2022-12-31T19:58:39;3.60;;;2.73;;
9280;SDS011;4679;47.966;7.958;2022-12-31T20:00:40;2.83;;;1.90;;
9280;SDS011;4679;47.966;7.958;2022-12-31T20:02:43;2.73;;;1.83;;
9280;SDS011;4679;47.966;7.958;2022-12-31T20:04:47;2.53;;;2.20;;
9280;SDS011;4679;47.966;7.958;2022-12-31T20:06:49;5.07;;;2.77;;
9280;SDS011;4679;47.966;7.958;2022-12-31T20:08:51;7.70;;;4.83;;
9280;SDS011;4679;47.966;7.958;2022-12-31T20:10:52;4.07;;;2.77;;
9280;SDS011;4679;47.966;7.958;2022-12-31T20:12:57;2.77;;;2.57;;
9280;SDS011;4679;47.966;7.958;2022-12-31T20:14:59;3.13;;;2.87;;
9280;SDS011;4679;47.966;7.958;2022-12-31T20:17:01;3.27;;;2.37;;
9280;SDS011;4679;47.966;7.958;2022-12-31T20:19:02;8.90;;;6.93;;
9280;SDS011;4679;47.966;7.958;2022-12-31T20:21:09;7.83;;;6.57;;
9280;SDS011;4679;47.966;7.958;2022-12-31T20:23:11;11.33;;;7.63;;
9280;SDS011;4679;47.966;7.958;2022-12-31T20:25:13;8.60;;;6.10;;
9280;SDS011;4679;47.966;7.958;2022-12-31T20:27:15;2.27;;;2.07;;
9280;SDS011;4679;47.966;7.958;2022-12-31T20:29:17;3.73;;;1.90;;
9280;SDS011;4679;47.966;7.958;2022-12-31T20:31:19;9.90;;;6.77;;
9280;SDS011;4679;47.966;7.958;2022-12-31T20:33:23;2.43;;;2.20;;
9280;SDS011;4679;47.966;7.958;2022-12-31T20:35:25;3.50;;;2.67;;
9280;SDS011;4679;47.966;7.958;2022-12-31T20:37:28;2.83;;;2.40;;
9280;SDS011;4679;47.966;7.958;2022-12-31T20:39:30;3.23;;;1.67;;
9280;SDS011;4679;47.966;7.958;2022-12-31T20:41:32;2.40;;;2.20;;
9280;SDS011;4679;47.966;7.958;2022-12-31T20:43:34;13.77;;;9.13;;
9280;SDS011;4679;47.966;7.958;2022-12-31T20:45:38;11.43;;;7.03;;
9280;SDS011;4679;47.966;7.958;2022-12-31T20:47:40;14.77;;;8.97;;
9280;SDS011;4679;47.966;7.958;2022-12-31T20:49:41;9.47;;;6.77;;
9280;SDS011;4679;47.966;7.958;2022-12-31T20:51:43;7.63;;;5.37;;
9280;SDS011;4679;47.966;7.958;2022-12-31T20:53:46;8.37;;;7.47;;
9280;SDS011;4679;47.966;7.958;2022-12-31T20:55:49;14.83;;;10.60;;
9280;SDS011;4679;47.966;7.958;2022-12-31T20:57:51;53.77;;;37.40;;
9280;SDS011;4679;47.966;7.958;2022-12-31T20:59:53;30.20;;;21.80;;
9280;SDS011;4679;47.966;7.958;2022-12-31T21:01:55;31.93;;;22.37;;
9280;SDS011;4679;47.966;7.958;2022-12-31T21:03:56;22.70;;;19.33;;
9280;SDS011;4679;47.966;7.958;2022-12-31T21:05:58;31.53;;;24.30;;
9280;SDS011;4679;47.966;7.958;2022-12-31T21:08:00;55.30;;;39.97;;
9280;SDS011;4679;47.966;7.958;2022-12-31T21:10:03;53.13;;;37.93;;
9280;SDS011;4679;47.966;7.958;2022-12-31T21:12:07;37.50;;;27.30;;
9280;SDS011;4679;47.966;7.958;2022-12-31T21:14:27;34.73;;;26.43;;
9280;SDS011;4679;47.966;7.958;2022-12-31T21:16:28;24.90;;;19.47;;
9280;SDS011;4679;47.966;7.958;2022-12-31T21:18:31;8.10;;;5.87;;
9280;SDS011;4679;47.966;7.958;2022-12-31T21:20:32;6.77;;;4.23;;